sensor_id;sensor_type;location;lat;lon;timestamp;pressure;altitude;pressure_sealevel;temperature;humidity
5877;BME280;2964;42.144;24.730;2023-06-10T00:01:13;146177.69;;;18.57;100.00
5877;BME280;2964;42.144;24.730;2023-06-10T00:03:40;146152.44;;;18.47;100.00
5877;BME280;2964;42.144;24.730;2023-06-10T00:06:08;146160.03;;;18.50;100.00
5877;BME280;2964;42.144;24.730;2023-06-10T00:08:35;146146.13;;;18.44;100.00
5877;BME280;2964;42.144;24.730;2023-06-10T00:11:02;146132.19;;;18.39;100.00
5877;BME280;2964;42.144;24.730;2023-06-10T00:13:29;146134.72;;;18.40;100.00
5877;BME280;2964;42.144;24.730;2023-06-10T00:15:56;146119.59;;;18.33;100.00
5877;BME280;2964;42.144;24.730;2023-06-10T00:18:24;146104.38;;;18.27;100.00
5877;BME280;2964;42.144;24.730;2023-06-10T00:20:52;146033.66;;;17.99;100.00
5877;BME280;2964;42.144;24.730;2023-06-10T00:23:20;146070.31;;;18.13;100.00
5877;BME280;2964;42.144;24.730;2023-06-10T00:25:47;145960.38;;;17.69;100.00
5877;BME280;2964;42.144;24.730;2023-06-10T00:28:14;146070.31;;;18.13;100.00
5877;BME280;2964;42.144;24.730;2023-06-10T00:30:41;146084.19;;;18.19;100.00
5877;BME280;2964;42.144;24.730;2023-06-10T00:33:07;146099.34;;;18.25;100.00
5877;BME280;2964;42.144;24.730;2023-06-10T00:35:36;146048.81;;;18.05;100.00
5877;BME280;2964;42.144;24.730;2023-06-10T00:38:03;146036.16;;;18.00;100.00
5877;BME280;2964;42.144;24.730;2023-06-10T00:40:29;146081.66;;;18.18;100.00
5877;BME280;2964;42.144;24.730;2023-06-10T00:42:56;146055.09;;;18.07;100.00
5877;BME280;2964;42.144;24.730;2023-06-10T00:45:23;146038.72;;;18.01;100.00
5877;BME280;2964;42.144;24.730;2023-06-10T00:47:50;146113.25;;;18.31;100.00
5877;BME280;2964;42.144;24.730;2023-06-10T00:50:17;146160.03;;;18.50;100.00
5877;BME280;2964;42.144;24.730;2023-06-10T00:52:45;146135.97;;;18.40;100.00
5877;BME280;2964;42.144;24.730;2023-06-10T00:55:14;146053.88;;;18.07;100.00
5877;BME280;2964;42.144;24.730;2023-06-10T00:57:42;146052.63;;;18.06;100.00
5877;BME280;2964;42.144;24.730;2023-06-10T01:00:10;146063.97;;;18.11;100.00
5877;BME280;2964;42.144;24.730;2023-06-10T01:02:37;146052.63;;;18.06;100.00
5877;BME280;2964;42.144;24.730;2023-06-10T01:05:05;146077.84;;;18.17;100.00
5877;BME280;2964;42.144;24.730;2023-06-10T01:07:37;146027.31;;;17.96;100.00
5877;BME280;2964;42.144;24.730;2023-06-10T01:10:11;146075.34;;;18.16;100.00
5877;BME280;2964;42.144;24.730;2023-06-10T01:12:43;146019.78;;;17.93;100.00
5877;BME280;2964;42.144;24.730;2023-06-10T01:15:14;146042.53;;;18.02;100.00
5877;BME280;2964;42.144;24.730;2023-06-10T01:17:56;146037.47;;;18.00;100.00
5877;BME280;2964;42.144;24.730;2023-06-10T01:20:24;146045.00;;;18.03;100.00
5877;BME280;2964;42.144;24.730;2023-06-10T01:22:53;146038.72;;;18.01;100.00
5877;BME280;2964;42.144;24.730;2023-06-10T01:25:21;146017.22;;;17.92;100.00
5877;BME280;2964;42.144;24.730;2023-06-10T01:27:54;146056.41;;;18.08;100.00
5877;BME280;2964;42.144;24.730;2023-06-10T01:30:27;146129.69;;;18.38;100.00
5877;BME280;2964;42.144;24.730;2023-06-10T01:32:59;146079.16;;;18.17;100.00
5877;BME280;2964;42.144;24.730;2023-06-10T01:35:29;146074.09;;;18.15;100.00
5877;BME280;2964;42.144;24.730;2023-06-10T01:37:58;146138.53;;;18.41;100.00
5877;BME280;2964;42.144;24.730;2023-06-10T01:40:26;146122.09;;;18.35;100.00
5877;BME280;2964;42.144;24.730;2023-06-10T01:42:53;146048.81;;;18.05;100.00
5877;BME280;2964;42.144;24.730;2023-06-10T01:45:20;146032.38;;;17.98;100.00
5877;BME280;2964;42.144;24.730;2023-06-10T01:47:46;146021.03;;;17.93;100.00
5877;BME280;2964;42.144;24.730;2023-06-10T01:50:13;145946.47;;;17.63;100.00
5877;BME280;2964;42.144;24.730;2023-06-10T01:52:41;145990.66;;;17.81;100.00
5877;BME280;2964;42.144;24.730;2023-06-10T01:55:09;145998.25;;;17.84;100.00
5877;BME280;2964;42.144;24.730;2023-06-10T01:57:36;146039.97;;;18.01;100.00
5877;BME280;2964;42.144;24.730;2023-06-10T02:00:03;145995.69;;;17.83;100.00
5877;BME280;2964;42.144;24.730;2023-06-10T02:02:30;145971.72;;;17.73;100.00
5877;BME280;2964;42.144;24.730;2023-06-10T02:04:57;145980.56;;;17.77;100.00
5877;BME280;2964;42.144;24.730;2023-06-10T02:07:24;145991.94;;;17.82;100.00
5877;BME280;2964;42.144;24.730;2023-06-10T02:09:50;145988.16;;;17.80;100.00
5877;BME280;2964;42.144;24.730;2023-06-10T02:12:18;145983.09;;;17.78;100.00
5877;BME280;2964;42.144;24.730;2023-06-10T02:14:45;145989.41;;;17.81;100.00
5877;BME280;2964;42.144;24.730;2023-06-10T02:17:11;145986.84;;;17.80;100.00
5877;BME280;2964;42.144;24.730;2023-06-10T02:19:40;145964.13;;;17.70;100.00
5877;BME280;2964;42.144;24.730;2023-06-10T02:22:07;146004.59;;;17.87;100.00
5877;BME280;2964;42.144;24.730;2023-06-10T02:24:35;145962.88;;;17.70;100.00
5877;BME280;2964;42.144;24.730;2023-06-10T02:27:03;145947.72;;;17.64;100.00
5877;BME280;2964;42.144;24.730;2023-06-10T02:29:33;145962.88;;;17.70;100.00
5877;BME280;2964;42.144;24.730;2023-06-10T02:32:01;145970.47;;;17.73;100.00
5877;BME280;2964;42.144;24.730;2023-06-10T02:34:28;145989.41;;;17.81;100.00
5877;BME280;2964;42.144;24.730;2023-06-10T02:36:54;145983.09;;;17.78;100.00
5877;BME280;2964;42.144;24.730;2023-06-10T02:39:21;145965.41;;;17.71;100.00
5877;BME280;2964;42.144;24.730;2023-06-10T02:41:48;145988.16;;;17.80;100.00
5877;BME280;2964;42.144;24.730;2023-06-10T02:44:14;146008.38;;;17.88;100.00
5877;BME280;2964;42.144;24.730;2023-06-10T02:46:42;146015.97;;;17.91;100.00
5877;BME280;2964;42.144;24.730;2023-06-10T02:49:09;146009.63;;;17.89;100.00
5877;BME280;2964;42.144;24.730;2023-06-10T02:51:36;146017.22;;;17.92;100.00
5877;BME280;2964;42.144;24.730;2023-06-10T02:54:03;146008.38;;;17.88;100.00
5877;BME280;2964;42.144;24.730;2023-06-10T02:56:30;146041.22;;;18.02;100.00
5877;BME280;2964;42.144;24.730;2023-06-10T02:58:56;146031.13;;;17.98;100.00
5877;BME280;2964;42.144;24.730;2023-06-10T03:01:23;146023.56;;;17.94;100.00
5877;BME280;2964;42.144;24.730;2023-06-10T03:03:51;146027.31;;;17.96;100.00
5877;BME280;2964;42.144;24.730;2023-06-10T03:06:18;146119.59;;;18.33;100.00
5877;BME280;2964;42.144;24.730;2023-06-10T03:08:44;146015.97;;;17.91;100.00
5877;BME280;2964;42.144;24.730;2023-06-10T03:11:11;146127.13;;;18.37;100.00
5877;BME280;2964;42.144;24.730;2023-06-10T03:13:38;146112.00;;;18.30;100.00
5877;BME280;2964;42.144;24.730;2023-06-10T03:16:05;146094.28;;;18.23;100.00
5877;BME280;2964;42.144;24.730;2023-06-10T03:18:33;146090.50;;;18.22;100.00
5877;BME280;2964;42.144;24.730;2023-06-10T03:21:08;146138.53;;;18.41;100.00
5877;BME280;2964;42.144;24.730;2023-06-10T03:23:35;146165.06;;;18.52;100.00
5877;BME280;2964;42.144;24.730;2023-06-10T03:26:02;146128.44;;;18.37;100.00
5877;BME280;2964;42.144;24.730;2023-06-10T03:28:30;146132.19;;;18.39;100.00
5877;BME280;2964;42.144;24.730;2023-06-10T03:30:57;146130.94;;;18.38;100.00
5877;BME280;2964;42.144;24.730;2023-06-10T03:33:23;146158.72;;;18.49;100.00
5877;BME280;2964;42.144;24.730;2023-06-10T03:35:50;146153.69;;;18.47;100.00
5877;BME280;2964;42.144;24.730;2023-06-10T03:38:18;146152.44;;;18.47;100.00
5877;BME280;2964;42.144;24.730;2023-06-10T03:40:45;146185.28;;;18.60;100.00
5877;BME280;2964;42.144;24.730;2023-06-10T03:43:11;146226.97;;;18.77;100.00
5877;BME280;2964;42.144;24.730;2023-06-10T03:45:38;146307.94;;;19.10;99.79
5877;BME280;2964;42.144;24.730;2023-06-10T03:48:06;146339.53;;;19.23;98.05
5877;BME280;2964;42.144;24.730;2023-06-10T03:50:33;146286.44;;;19.01;98.44
5877;BME280;2964;42.144;24.730;2023-06-10T03:53:01;146275.06;;;18.97;99.74
5877;BME280;2964;42.144;24.730;2023-06-10T03:55:29;146257.38;;;18.89;100.00
5877;BME280;2964;42.144;24.730;2023-06-10T03:57:56;146256.13;;;18.89;100.00
5877;BME280;2964;42.144;24.730;2023-06-10T04:00:23;146244.72;;;18.84;100.00
5877;BME280;2964;42.144;24.730;2023-06-10T04:02:50;146261.16;;;18.91;100.00
5877;BME280;2964;42.144;24.730;2023-06-10T04:05:19;146256.13;;;18.89;100.00
5877;BME280;2964;42.144;24.730;2023-06-10T04:07:47;146235.88;;;18.81;100.00
5877;BME280;2964;42.144;24.730;2023-06-10T04:10:14;146263.69;;;18.92;100.00
5877;BME280;2964;42.144;24.730;2023-06-10T04:12:44;146273.81;;;18.96;100.00
5877;BME280;2964;42.144;24.730;2023-06-10T04:15:10;146291.53;;;19.03;100.00
5877;BME280;2964;42.144;24.730;2023-06-10T04:17:38;146299.09;;;19.06;100.00
5877;BME280;2964;42.144;24.730;2023-06-10T04:20:06;146291.53;;;19.03;100.00
5877;BME280;2964;42.144;24.730;2023-06-10T04:22:35;146288.97;;;19.02;100.00
5877;BME280;2964;42.144;24.730;2023-06-10T04:25:02;146282.69;;;19.00;100.00
5877;BME280;2964;42.144;24.730;2023-06-10T04:27:29;146330.69;;;19.19;100.00
5877;BME280;2964;42.144;24.730;2023-06-10T04:29:57;146333.25;;;19.20;99.82
5877;BME280;2964;42.144;24.730;2023-06-10T04:32:23;146363.56;;;19.33;99.23
5877;BME280;2964;42.144;24.730;2023-06-10T04:34:51;146426.78;;;19.58;98.05
5877;BME280;2964;42.144;24.730;2023-06-10T04:37:17;146415.44;;;19.54;98.30
5877;BME280;2964;42.144;24.730;2023-06-10T04:39:45;146435.63;;;19.62;98.17
5877;BME280;2964;42.144;24.730;2023-06-10T04:42:12;146460.97;;;19.72;98.26
5877;BME280;2964;42.144;24.730;2023-06-10T04:44:38;146450.84;;;19.68;96.36
5877;BME280;2964;42.144;24.730;2023-06-10T04:47:07;146482.53;;;19.81;95.91
5877;BME280;2964;42.144;24.730;2023-06-10T04:49:34;146396.47;;;19.46;95.41
5877;BME280;2964;42.144;24.730;2023-06-10T04:52:02;146582.47;;;20.21;92.79
5877;BME280;2964;42.144;24.730;2023-06-10T04:54:30;146615.34;;;20.35;92.19
5877;BME280;2964;42.144;24.730;2023-06-10T04:56:57;146635.56;;;20.43;91.73
5877;BME280;2964;42.144;24.730;2023-06-10T04:59:24;146631.78;;;20.41;92.36
5877;BME280;2964;42.144;24.730;2023-06-10T05:01:51;146577.34;;;20.19;91.83
5877;BME280;2964;42.144;24.730;2023-06-10T05:04:19;146639.38;;;20.44;92.21
5877;BME280;2964;42.144;24.730;2023-06-10T05:06:45;146714.06;;;20.75;92.56
5877;BME280;2964;42.144;24.730;2023-06-10T05:09:12;146815.38;;;21.16;90.34
5877;BME280;2964;42.144;24.730;2023-06-10T05:11:39;146904.03;;;21.52;88.46
5877;BME280;2964;42.144;24.730;2023-06-10T05:14:05;146987.66;;;21.86;86.86
5877;BME280;2964;42.144;24.730;2023-06-10T05:16:32;147048.47;;;22.10;86.36
5877;BME280;2964;42.144;24.730;2023-06-10T05:18:59;147006.66;;;21.93;87.11
5877;BME280;2964;42.144;24.730;2023-06-10T05:21:27;146982.56;;;21.84;87.28
5877;BME280;2964;42.144;24.730;2023-06-10T05:23:53;147101.72;;;22.32;86.18
5877;BME280;2964;42.144;24.730;2023-06-10T05:26:21;147165.09;;;22.58;85.20
5877;BME280;2964;42.144;24.730;2023-06-10T05:28:47;147246.19;;;22.90;83.02
5877;BME280;2964;42.144;24.730;2023-06-10T05:31:14;147233.53;;;22.85;83.01
5877;BME280;2964;42.144;24.730;2023-06-10T05:33:41;147209.41;;;22.75;83.39
5877;BME280;2964;42.144;24.730;2023-06-10T05:36:07;147248.75;;;22.91;82.78
5877;BME280;2964;42.144;24.730;2023-06-10T05:38:35;147236.06;;;22.86;82.89
5877;BME280;2964;42.144;24.730;2023-06-10T05:41:02;147127.06;;;22.42;82.84
5877;BME280;2964;42.144;24.730;2023-06-10T05:43:29;147191.69;;;22.68;81.07
5877;BME280;2964;42.144;24.730;2023-06-10T05:45:56;147256.34;;;22.94;80.53
5877;BME280;2964;42.144;24.730;2023-06-10T05:48:22;147322.31;;;23.21;79.56
5877;BME280;2964;42.144;24.730;2023-06-10T05:50:49;147354.00;;;23.34;79.24
5877;BME280;2964;42.144;24.730;2023-06-10T05:53:16;147367.94;;;23.40;78.08
5877;BME280;2964;42.144;24.730;2023-06-10T05:55:44;147360.31;;;23.37;78.95
5877;BME280;2964;42.144;24.730;2023-06-10T05:58:12;147403.47;;;23.54;77.40
5877;BME280;2964;42.144;24.730;2023-06-10T06:00:39;147449.13;;;23.73;77.84
5877;BME280;2964;42.144;24.730;2023-06-10T06:03:06;147464.31;;;23.79;77.82
5877;BME280;2964;42.144;24.730;2023-06-10T06:05:33;147461.81;;;23.78;78.46
5877;BME280;2964;42.144;24.730;2023-06-10T06:08:02;147324.88;;;23.22;80.88
5877;BME280;2964;42.144;24.730;2023-06-10T06:10:29;147383.16;;;23.46;79.95
5877;BME280;2964;42.144;24.730;2023-06-10T06:12:58;147444.06;;;23.70;79.58
5877;BME280;2964;42.144;24.730;2023-06-10T06:15:24;147468.19;;;23.80;79.77
5877;BME280;2964;42.144;24.730;2023-06-10T06:17:51;147388.25;;;23.48;81.38
5877;BME280;2964;42.144;24.730;2023-06-10T06:20:18;147384.44;;;23.46;79.68
5877;BME280;2964;42.144;24.730;2023-06-10T06:22:45;147418.66;;;23.60;80.42
5877;BME280;2964;42.144;24.730;2023-06-10T06:25:12;147195.47;;;22.70;82.27
5877;BME280;2964;42.144;24.730;2023-06-10T06:27:39;147113.13;;;22.36;83.87
5877;BME280;2964;42.144;24.730;2023-06-10T06:30:08;147247.47;;;22.91;82.99
5877;BME280;2964;42.144;24.730;2023-06-10T06:32:34;147367.94;;;23.40;80.26
5877;BME280;2964;42.144;24.730;2023-06-10T06:35:01;147290.59;;;23.08;81.39
5877;BME280;2964;42.144;24.730;2023-06-10T06:37:28;147446.56;;;23.71;80.26
5877;BME280;2964;42.144;24.730;2023-06-10T06:39:55;147588.72;;;24.29;79.38
5877;BME280;2964;42.144;24.730;2023-06-10T06:42:21;147629.28;;;24.45;75.15
5877;BME280;2964;42.144;24.730;2023-06-10T06:44:48;147718.19;;;24.81;76.19
5877;BME280;2964;42.144;24.730;2023-06-10T06:47:16;147978.53;;;25.87;71.43
5877;BME280;2964;42.144;24.730;2023-06-10T06:49:45;148300.06;;;27.16;69.33
5877;BME280;2964;42.144;24.730;2023-06-10T06:52:11;148718.66;;;28.85;65.55
5877;BME280;2964;42.144;24.730;2023-06-10T06:54:38;148955.53;;;29.81;59.38
5877;BME280;2964;42.144;24.730;2023-06-10T06:57:05;148964.44;;;29.85;59.55
5877;BME280;2964;42.144;24.730;2023-06-10T06:59:32;148930.00;;;29.71;59.76
5877;BME280;2964;42.144;24.730;2023-06-10T07:01:59;149265.09;;;31.06;55.25
5877;BME280;2964;42.144;24.730;2023-06-10T07:04:27;149423.19;;;31.69;53.43
5877;BME280;2964;42.144;24.730;2023-06-10T07:06:54;148633.34;;;28.51;60.55
5877;BME280;2964;42.144;24.730;2023-06-10T07:09:20;148497.28;;;27.96;63.00
5877;BME280;2964;42.144;24.730;2023-06-10T07:11:47;148473.03;;;27.86;62.90
5877;BME280;2964;42.144;24.730;2023-06-10T07:14:14;147992.53;;;25.92;68.71
5877;BME280;2964;42.144;24.730;2023-06-10T07:16:40;148034.44;;;26.09;68.81
5877;BME280;2964;42.144;24.730;2023-06-10T07:19:07;148211.13;;;26.81;66.98
5877;BME280;2964;42.144;24.730;2023-06-10T07:21:35;148244.16;;;26.94;67.76
5877;BME280;2964;42.144;24.730;2023-06-10T07:24:06;148204.75;;;26.78;68.31
5877;BME280;2964;42.144;24.730;2023-06-10T07:26:33;148261.94;;;27.01;66.60
5877;BME280;2964;42.144;24.730;2023-06-10T07:29:00;148699.59;;;28.78;59.55
5877;BME280;2964;42.144;24.730;2023-06-10T07:31:26;148719.91;;;28.86;59.77
5877;BME280;2964;42.144;24.730;2023-06-10T07:33:53;149266.41;;;31.06;56.76
5877;BME280;2964;42.144;24.730;2023-06-10T07:36:20;149677.00;;;32.72;50.37
5877;BME280;2964;42.144;24.730;2023-06-10T07:38:48;150197.88;;;34.81;47.52
5877;BME280;2964;42.144;24.730;2023-06-10T07:41:14;150643.88;;;36.60;42.60
5877;BME280;2964;42.144;24.730;2023-06-10T07:43:43;150915.06;;;37.69;36.01
5877;BME280;2964;42.144;24.730;2023-06-10T07:46:09;150711.69;;;36.87;38.28
5877;BME280;2964;42.144;24.730;2023-06-10T07:48:36;150665.66;;;36.69;37.78
5877;BME280;2964;42.144;24.730;2023-06-10T07:51:03;150549.28;;;36.22;37.52
5877;BME280;2964;42.144;24.730;2023-06-10T07:53:30;150447.03;;;35.81;38.37
5877;BME280;2964;42.144;24.730;2023-06-10T07:55:57;150040.81;;;34.18;41.64
5877;BME280;2964;42.144;24.730;2023-06-10T07:58:24;150493.03;;;36.00;41.14
5877;BME280;2964;42.144;24.730;2023-06-10T08:00:51;150762.81;;;37.08;35.27
5877;BME280;2964;42.144;24.730;2023-06-10T08:03:17;150925.28;;;37.73;34.61
5877;BME280;2964;42.144;24.730;2023-06-10T08:05:44;151092.91;;;38.40;33.66
5877;BME280;2964;42.144;24.730;2023-06-10T08:08:11;151673.00;;;40.73;28.41
5877;BME280;2964;42.144;24.730;2023-06-10T08:10:37;151160.72;;;38.68;29.94
5877;BME280;2964;42.144;24.730;2023-06-10T08:13:05;150613.19;;;36.48;36.64
5877;BME280;2964;42.144;24.730;2023-06-10T08:15:32;151069.88;;;38.31;34.88
5877;BME280;2964;42.144;24.730;2023-06-10T08:17:59;151318.22;;;39.31;31.95
5877;BME280;2964;42.144;24.730;2023-06-10T08:20:25;151397.59;;;39.63;30.71
5877;BME280;2964;42.144;24.730;2023-06-10T08:22:52;151869.06;;;41.52;29.73
5877;BME280;2964;42.144;24.730;2023-06-10T08:25:19;151032.78;;;38.16;30.77
5877;BME280;2964;42.144;24.730;2023-06-10T08:27:47;150472.59;;;35.91;36.56
5877;BME280;2964;42.144;24.730;2023-06-10T08:30:15;150395.88;;;35.61;34.69
5877;BME280;2964;42.144;24.730;2023-06-10T08:32:43;150305.19;;;35.24;36.96
5877;BME280;2964;42.144;24.730;2023-06-10T08:35:10;150504.53;;;36.04;34.21
5877;BME280;2964;42.144;24.730;2023-06-10T08:37:36;150280.88;;;35.14;35.79
5877;BME280;2964;42.144;24.730;2023-06-10T08:40:04;150232.34;;;34.95;34.99
5877;BME280;2964;42.144;24.730;2023-06-10T08:42:35;150610.66;;;36.47;33.32
5877;BME280;2964;42.144;24.730;2023-06-10T08:45:07;150564.66;;;36.28;33.38
5877;BME280;2964;42.144;24.730;2023-06-10T08:47:42;150567.16;;;36.29;35.85
5877;BME280;2964;42.144;24.730;2023-06-10T08:50:10;149992.25;;;33.98;35.28
5877;BME280;2964;42.144;24.730;2023-06-10T08:52:42;150403.56;;;35.64;34.82
5877;BME280;2964;42.144;24.730;2023-06-10T08:55:12;150614.50;;;36.48;31.73
5877;BME280;2964;42.144;24.730;2023-06-10T08:57:41;151316.91;;;39.30;29.19
5877;BME280;2964;42.144;24.730;2023-06-10T09:00:08;151293.84;;;39.21;29.57
5877;BME280;2964;42.144;24.730;2023-06-10T09:02:36;151352.75;;;39.45;29.48
5877;BME280;2964;42.144;24.730;2023-06-10T09:05:05;150756.38;;;37.05;30.86
5877;BME280;2964;42.144;24.730;2023-06-10T09:07:32;150107.19;;;34.45;33.27
5877;BME280;2964;42.144;24.730;2023-06-10T09:10:00;149911.81;;;33.66;34.70
5877;BME280;2964;42.144;24.730;2023-06-10T09:12:28;149759.91;;;33.05;38.45
5877;BME280;2964;42.144;24.730;2023-06-10T09:14:55;149525.22;;;32.10;39.30
5877;BME280;2964;42.144;24.730;2023-06-10T09:17:22;149520.13;;;32.08;40.24
5877;BME280;2964;42.144;24.730;2023-06-10T09:19:48;149358.16;;;31.43;40.27
5877;BME280;2964;42.144;24.730;2023-06-10T09:22:18;149263.84;;;31.05;40.52
5877;BME280;2964;42.144;24.730;2023-06-10T09:24:46;149249.81;;;31.00;41.02
5877;BME280;2964;42.144;24.730;2023-06-10T09:27:13;148889.25;;;29.54;41.14
5877;BME280;2964;42.144;24.730;2023-06-10T09:29:46;148890.56;;;29.55;41.31
5877;BME280;2964;42.144;24.730;2023-06-10T09:32:14;148844.69;;;29.36;42.50
5877;BME280;2964;42.144;24.730;2023-06-10T09:34:41;148931.25;;;29.71;43.41
5877;BME280;2964;42.144;24.730;2023-06-10T09:37:08;149035.72;;;30.13;43.98
5877;BME280;2964;42.144;24.730;2023-06-10T09:39:39;149048.47;;;30.18;45.14
5877;BME280;2964;42.144;24.730;2023-06-10T09:42:15;149033.19;;;30.12;46.04
5877;BME280;2964;42.144;24.730;2023-06-10T09:44:49;149006.44;;;30.01;47.50
5877;BME280;2964;42.144;24.730;2023-06-10T09:47:20;148982.25;;;29.92;48.35
5877;BME280;2964;42.144;24.730;2023-06-10T09:49:46;149006.44;;;30.01;48.39
5877;BME280;2964;42.144;24.730;2023-06-10T09:52:13;149025.53;;;30.09;48.20
5877;BME280;2964;42.144;24.730;2023-06-10T09:54:44;149045.91;;;30.17;47.84
5877;BME280;2964;42.144;24.730;2023-06-10T09:57:10;149014.09;;;30.05;47.53
5877;BME280;2964;42.144;24.730;2023-06-10T09:59:37;148839.59;;;29.34;48.39
5877;BME280;2964;42.144;24.730;2023-06-10T10:02:04;148867.63;;;29.45;47.76
5877;BME280;2964;42.144;24.730;2023-06-10T10:04:31;148980.97;;;29.91;45.93
5877;BME280;2964;42.144;24.730;2023-06-10T10:06:57;148991.13;;;29.95;45.64
5877;BME280;2964;42.144;24.730;2023-06-10T10:09:24;148923.63;;;29.68;46.10
5877;BME280;2964;42.144;24.730;2023-06-10T10:11:54;148893.06;;;29.56;46.89
5877;BME280;2964;42.144;24.730;2023-06-10T10:14:22;149034.44;;;30.13;45.78
5877;BME280;2964;42.144;24.730;2023-06-10T10:16:49;149122.38;;;30.48;47.05
5877;BME280;2964;42.144;24.730;2023-06-10T10:19:20;149034.44;;;30.13;45.06
5877;BME280;2964;42.144;24.730;2023-06-10T10:21:52;148973.34;;;29.88;47.71
5877;BME280;2964;42.144;24.730;2023-06-10T10:24:21;149000.06;;;29.99;47.63
5877;BME280;2964;42.144;24.730;2023-06-10T10:26:50;148938.94;;;29.74;46.95
5877;BME280;2964;42.144;24.730;2023-06-10T10:29:23;148933.81;;;29.72;48.39
5877;BME280;2964;42.144;24.730;2023-06-10T10:31:51;148946.59;;;29.77;48.08
5877;BME280;2964;42.144;24.730;2023-06-10T10:34:21;148888.00;;;29.54;48.44
5877;BME280;2964;42.144;24.730;2023-06-10T10:36:51;148930.00;;;29.71;46.21
5877;BME280;2964;42.144;24.730;2023-06-10T10:39:18;148837.06;;;29.33;47.65
5877;BME280;2964;42.144;24.730;2023-06-10T10:41:46;148856.16;;;29.41;47.47
5877;BME280;2964;42.144;24.730;2023-06-10T10:44:14;148844.69;;;29.36;47.31
5877;BME280;2964;42.144;24.730;2023-06-10T10:46:49;148781.03;;;29.11;47.32
5877;BME280;2964;42.144;24.730;2023-06-10T10:49:17;148485.81;;;27.91;49.63
5877;BME280;2964;42.144;24.730;2023-06-10T10:51:57;148342.09;;;27.33;49.74
5877;BME280;2964;42.144;24.730;2023-06-10T10:54:31;148503.63;;;27.99;49.70
5877;BME280;2964;42.144;24.730;2023-06-10T10:57:15;148410.75;;;27.61;50.13
5877;BME280;2964;42.144;24.730;2023-06-10T10:59:51;148030.63;;;26.08;49.04
5877;BME280;2964;42.144;24.730;2023-06-10T11:02:33;148637.22;;;28.53;47.92
5877;BME280;2964;42.144;24.730;2023-06-10T11:05:01;148707.19;;;28.81;50.46
5877;BME280;2964;42.144;24.730;2023-06-10T11:07:30;148693.19;;;28.75;48.35
5877;BME280;2964;42.144;24.730;2023-06-10T11:09:58;148661.38;;;28.62;47.71
5877;BME280;2964;42.144;24.730;2023-06-10T11:12:25;148511.28;;;28.02;49.31
5877;BME280;2964;42.144;24.730;2023-06-10T11:14:56;148453.97;;;27.79;50.62
5877;BME280;2964;42.144;24.730;2023-06-10T11:17:23;148431.09;;;27.69;51.41
5877;BME280;2964;42.144;24.730;2023-06-10T11:19:51;148429.81;;;27.69;52.27
5877;BME280;2964;42.144;24.730;2023-06-10T11:22:18;148366.25;;;27.43;51.38
5877;BME280;2964;42.144;24.730;2023-06-10T11:24:48;148351.00;;;27.37;50.87
5877;BME280;2964;42.144;24.730;2023-06-10T11:27:17;148412.03;;;27.62;50.53
5877;BME280;2964;42.144;24.730;2023-06-10T11:29:58;148431.09;;;27.69;49.51
5877;BME280;2964;42.144;24.730;2023-06-10T11:32:43;148539.25;;;28.13;48.57
5877;BME280;2964;42.144;24.730;2023-06-10T11:35:11;148564.66;;;28.23;48.21
5877;BME280;2964;42.144;24.730;2023-06-10T11:37:38;148559.56;;;28.21;48.95
5877;BME280;2964;42.144;24.730;2023-06-10T11:40:06;148512.53;;;28.02;49.19
5877;BME280;2964;42.144;24.730;2023-06-10T11:42:38;148571.06;;;28.26;47.87
5877;BME280;2964;42.144;24.730;2023-06-10T11:45:06;148527.78;;;28.08;48.73
5877;BME280;2964;42.144;24.730;2023-06-10T11:47:34;148536.69;;;28.12;47.95
5877;BME280;2964;42.144;24.730;2023-06-10T11:50:00;148361.16;;;27.41;49.31
5877;BME280;2964;42.144;24.730;2023-06-10T11:52:29;148352.25;;;27.38;49.17
5877;BME280;2964;42.144;24.730;2023-06-10T11:54:57;148396.78;;;27.56;50.39
5877;BME280;2964;42.144;24.730;2023-06-10T11:57:24;148409.44;;;27.61;50.33
5877;BME280;2964;42.144;24.730;2023-06-10T11:59:50;148339.53;;;27.32;51.11
5877;BME280;2964;42.144;24.730;2023-06-10T12:02:18;148394.22;;;27.54;49.79
5877;BME280;2964;42.144;24.730;2023-06-10T12:04:45;148354.78;;;27.39;50.40
5877;BME280;2964;42.144;24.730;2023-06-10T12:07:17;148335.72;;;27.31;51.05
5877;BME280;2964;42.144;24.730;2023-06-10T12:09:45;148419.66;;;27.65;50.90
5877;BME280;2964;42.144;24.730;2023-06-10T12:12:12;148373.91;;;27.46;50.94
5877;BME280;2964;42.144;24.730;2023-06-10T12:14:53;148417.09;;;27.64;51.55
5877;BME280;2964;42.144;24.730;2023-06-10T12:17:20;148489.63;;;27.93;50.63
5877;BME280;2964;42.144;24.730;2023-06-10T12:19:48;148502.38;;;27.98;49.64
5877;BME280;2964;42.144;24.730;2023-06-10T12:22:14;148295.00;;;27.14;50.23
5877;BME280;2964;42.144;24.730;2023-06-10T12:24:57;148317.88;;;27.24;50.42
5877;BME280;2964;42.144;24.730;2023-06-10T12:27:25;148363.69;;;27.42;50.78
5877;BME280;2964;42.144;24.730;2023-06-10T12:29:55;148389.13;;;27.52;49.90
5877;BME280;2964;42.144;24.730;2023-06-10T12:32:35;148366.25;;;27.43;51.44
5877;BME280;2964;42.144;24.730;2023-06-10T12:35:03;148396.78;;;27.56;52.13
5877;BME280;2964;42.144;24.730;2023-06-10T12:37:30;148367.50;;;27.44;52.29
5877;BME280;2964;42.144;24.730;2023-06-10T12:40:01;148400.56;;;27.57;52.21
5877;BME280;2964;42.144;24.730;2023-06-10T12:42:29;148366.25;;;27.43;53.15
5877;BME280;2964;42.144;24.730;2023-06-10T12:44:56;148452.72;;;27.78;53.49
5877;BME280;2964;42.144;24.730;2023-06-10T12:47:29;148488.38;;;27.92;51.83
5877;BME280;2964;42.144;24.730;2023-06-10T12:49:58;148460.31;;;27.81;50.92
5877;BME280;2964;42.144;24.730;2023-06-10T12:52:25;148408.19;;;27.60;51.29
5877;BME280;2964;42.144;24.730;2023-06-10T12:54:52;148441.25;;;27.73;50.98
5877;BME280;2964;42.144;24.730;2023-06-10T12:57:20;148381.50;;;27.49;50.08
5877;BME280;2964;42.144;24.730;2023-06-10T12:59:48;148384.06;;;27.50;51.75
5877;BME280;2964;42.144;24.730;2023-06-10T13:02:18;148408.19;;;27.60;51.37